Time;durP1;ratioP1;P1;durP2;ratioP2;P2;SDS_P1;SDS_P2;PMS_P1;PMS_P2;Temp;Humidity;BMP_temperature;BMP_pressure;BME280_temperature;BME280_humidity;BME280_pressure;Samples;Min_cycle;Max_cycle;Signal;HPM_P1;HPM_P2
2022/06/11 00:05:29;;;;;;;;;;;;;;;;;;12659788;28;19985;-91
2022/06/11 00:11:31;;;;;;;;;;;;;;;;;;12644482;28;19915;-91
2022/06/11 00:17:32;;;;;;;;;;;;;;;;;;12648340;28;19920;-91
2022/06/11 00:23:34;;;;;;;;;;;;;;;;;;12635862;28;20219;-90
2022/06/11 00:29:35;;;;;;;;;;;;;;;;;;12635414;28;19915;-90
2022/06/11 00:35:37;;;;;;;;;;;;;;;;;;12653379;28;19912;-91
2022/06/11 00:41:38;;;;;;;;;;;;;;;;;;12653286;28;19938;-90
2022/06/11 00:47:40;;;;;;;;;;;;;;;;;;12651844;28;19912;-91
2022/06/11 00:53:41;;;;;;;;;;;;;;;;;;12635059;28;19908;-91
2022/06/11 00:59:43;;;;;;;;;;;;;;;;;;12651306;28;19916;-91
2022/06/11 01:05:44;;;;;;;;;;;;;;;;;;12651513;28;20444;-91
2022/06/11 01:11:46;;;;;;;;;;;;;;;;;;12650697;28;19909;-91
2022/06/11 01:17:49;;;;;;;;;;;;;;;;;;12651238;28;19947;-91
2022/06/11 01:23:51;;;;;;;;;;;;;;;;;;12650829;28;19908;-91
2022/06/11 01:29:53;;;;;;;;;;;;;;;;;;12649979;28;19930;-91
2022/06/11 01:35:55;;;;;;;;;;;;;;;;;;12632399;28;19908;-91
2022/06/11 01:41:56;;;;;;;;;;;;;;;;;;12640233;28;19923;-89
2022/06/11 01:47:58;;;;;;;;;;;;;;;;;;12658925;28;20288;-90
2022/06/11 01:53:59;;;;;;;;;;;;;;;;;;12648499;28;19907;-91
2022/06/11 02:00:01;;;;;;;;;;;;;;;;;;12648001;28;19916;-92
2022/06/11 02:06:03;;;;;;;;;;;;;;;;;;12649409;28;20410;-90
2022/06/11 02:12:05;;;;;;;;;;;;;;;;;;12647908;28;19916;-91
2022/06/11 02:18:06;;;;;;;;;;;;;;;;;;12647553;28;19920;-90
2022/06/11 02:24:09;;;;;;;;;;;;;;;;;;12630070;28;19919;-90
2022/06/11 02:30:11;;;;;;;;;;;;;;;;;;12630092;28;19908;-90
2022/06/11 02:36:12;;;;;;;;;;;;;;;;;;12629538;28;19915;-84
2022/06/11 02:42:14;;;;;;;;;;;;;;;;;;12646343;28;19908;-91
2022/06/11 02:48:15;;;;;;;;;;;;;;;;;;12629209;28;20367;-90
2022/06/11 02:54:17;;;;;;;;;;;;;;;;;;12628969;28;19912;-90
2022/06/11 03:00:19;;;;;;;;;;;;;;;;;;12655691;28;19939;-88
2022/06/11 03:06:20;;;;;;;;;;;;;;;;;;12635213;28;20009;-90
2022/06/11 03:12:22;;;;;;;;;;;;;;;;;;12646331;28;20272;-89
2022/06/11 03:18:23;;;;;;;;;;;;;;;;;;12646240;28;20391;-90
2022/06/11 03:24:24;;;;;;;;;;;;;;;;;;12645648;28;19908;-90
2022/06/11 03:30:26;;;;;;;;;;;;;;;;;;12645834;28;19908;-90
2022/06/11 03:36:28;;;;;;;;;;;;;;;;;;12645392;28;19920;-90
2022/06/11 03:42:29;;;;;;;;;;;;;;;;;;12627783;28;19908;-89
2022/06/11 03:48:31;;;;;;;;;;;;;;;;;;12645461;28;19923;-90
2022/06/11 03:54:32;;;;;;;;;;;;;;;;;;12636198;28;19915;-90
2022/06/11 04:06:54;;;;;;;;;;;;;;;;;;12637042;28;19908;-90
2022/06/11 04:12:55;;;;;;;;;;;;;;;;;;12654766;28;19916;-90
2022/06/11 04:18:57;;;;;;;;;;;;;;;;;;12653999;28;19920;-83
2022/06/11 04:24:58;;;;;;;;;;;;;;;;;;12652218;28;20287;-82
2022/06/11 04:31:00;;;;;;;;;;;;;;;;;;12651752;28;19908;-83
2022/06/11 04:37:02;;;;;;;;;;;;;;;;;;12653035;28;19916;-90
2022/06/11 04:43:03;;;;;;;;;;;;;;;;;;12652294;28;19908;-90
2022/06/11 04:49:05;;;;;;;;;;;;;;;;;;12652488;28;19919;-89
2022/06/11 04:55:06;;;;;;;;;;;;;;;;;;12633968;28;20276;-90
2022/06/11 05:01:07;;;;;;;;;;;;;;;;;;12650740;28;20368;-89
2022/06/11 05:07:09;;;;;;;;;;;;;;;;;;12651651;28;19908;-90
2022/06/11 05:13:10;;;;;;;;;;;;;;;;;;12652287;28;19920;-88
2022/06/11 05:19:12;;;;;;;;;;;;;;;;;;12633176;28;19927;-88
2022/06/11 05:25:13;;;;;;;;;;;;;;;;;;12633443;28;19908;-88
2022/06/11 05:31:15;;;;;;;;;;;;;;;;;;12632568;28;19951;-89
2022/06/11 05:37:16;;;;;;;;;;;;;;;;;;12632013;28;19916;-88
2022/06/11 05:43:18;;;;;;;;;;;;;;;;;;12650839;28;20355;-88
2022/06/11 05:49:20;;;;;;;;;;;;;;;;;;12649863;28;19919;-89
2022/06/11 05:55:21;;;;;;;;;;;;;;;;;;12631806;28;19914;-88
2022/06/11 06:01:22;;;;;;;;;;;;;;;;;;12647596;28;20340;-88
2022/06/11 06:07:24;;;;;;;;;;;;;;;;;;12648528;28;19908;-88
2022/06/11 06:19:46;;;;;;;;;;;;;;;;;;12647832;28;19924;-88
2022/06/11 06:25:49;;;;;;;;;;;;;;;;;;12647554;28;19935;-88
2022/06/11 06:31:50;;;;;;;;;;;;;;;;;;12647422;28;19915;-88
2022/06/11 06:37:52;;;;;;;;;;;;;;;;;;12647278;28;19916;-87
2022/06/11 06:43:53;;;;;;;;;;;;;;;;;;12668166;28;19912;-85
2022/06/11 06:49:55;;;;;;;;;;;;;;;;;;12650383;28;19912;-85
2022/06/11 06:55:56;;;;;;;;;;;;;;;;;;12646646;28;19914;-85
2022/06/11 07:01:58;;;;;;;;;;;;;;;;;;12630057;28;19919;-84
2022/06/11 07:07:59;;;;;;;;;;;;;;;;;;12645674;28;20368;-85
2022/06/11 07:14:01;;;;;;;;;;;;;;;;;;12628160;28;19927;-85
2022/06/11 07:20:02;;;;;;;;;;;;;;;;;;12628054;28;20372;-85
2022/06/11 07:26:03;;;;;;;;;;;;;;;;;;12626183;28;19915;-85
2022/06/11 07:32:05;;;;;;;;;;;;;;;;;;12644854;28;19908;-86
2022/06/11 07:38:06;;;;;;;;;;;;;;;;;;12644554;28;20257;-85
2022/06/11 07:44:08;;;;;;;;;;;;;;;;;;12645481;28;20341;-86
2022/06/11 07:50:11;;;;;;;;;;;;;;;;;;12644282;28;19908;-85
2022/06/11 07:56:12;;;;;;;;;;;;;;;;;;12625943;28;19908;-86
2022/06/11 08:02:14;;;;;;;;;;;;;;;;;;12639108;28;19916;-85
2022/06/11 08:08:15;;;;;;;;;;;;;;;;;;12622782;28;19931;-85
2022/06/11 08:14:17;;;;;;;;;;;;;;;;;;12623553;28;19920;-85
2022/06/11 08:20:18;;;;;;;;;;;;;;;;;;12640876;28;19927;-85
2022/06/11 08:26:20;;;;;;;;;;;;;;;;;;12641806;28;19908;-85
2022/06/11 08:32:22;;;;;;;;;;;;;;;;;;12622286;28;19908;-85
2022/06/11 08:38:23;;;;;;;;;;;;;;;;;;12644910;28;19916;-85
2022/06/11 08:44:25;;;;;;;;;;;;;;;;;;12631540;28;19912;-85
2022/06/11 08:50:26;;;;;;;;;;;;;;;;;;12648022;28;19915;-85
2022/06/11 08:56:28;;;;;;;;;;;;;;;;;;12631925;28;19919;-85
2022/06/11 09:02:29;;;;;;;;;;;;;;;;;;12649034;28;20364;-85
2022/06/11 09:08:31;;;;;;;;;;;;;;;;;;12649300;28;19919;-85
2022/06/11 09:14:32;;;;;;;;;;;;;;;;;;12683894;28;19920;-82
2022/06/11 09:20:34;;;;;;;;;;;;;;;;;;12662438;28;19916;-85
2022/06/11 09:26:35;;;;;;;;;;;;;;;;;;12652004;28;19915;-85
2022/06/11 09:32:36;;;;;;;;;;;;;;;;;;12633645;28;20292;-84
2022/06/11 09:38:38;;;;;;;;;;;;;;;;;;12633656;28;19926;-84
2022/06/11 09:44:40;;;;;;;;;;;;;;;;;;12633420;28;20368;-85
2022/06/11 09:50:42;;;;;;;;;;;;;;;;;;12632150;28;19915;-86
2022/06/11 09:56:45;;;;;;;;;;;;;;;;;;12632767;28;19908;-85
2022/06/11 10:03:00;;;;;;;;;;;;;;;;;;12632083;28;20376;-85
2022/06/11 10:09:02;;;;;;;;;;;;;;;;;;12650631;28;19908;-85
2022/06/11 10:15:03;;;;;;;;;;;;;;;;;;12653753;28;20070;-85
2022/06/11 10:21:05;;;;;;;;;;;;;;;;;;12632465;28;19916;-85
2022/06/11 10:27:06;;;;;;;;;;;;;;;;;;12648545;28;19908;-86
2022/06/11 10:33:08;;;;;;;;;;;;;;;;;;12631300;28;19912;-86
2022/06/11 10:39:09;;;;;;;;;;;;;;;;;;12648221;28;19923;-85
2022/06/11 10:45:11;;;;;;;;;;;;;;;;;;12649956;28;19915;-86
2022/06/11 10:51:12;;;;;;;;;;;;;;;;;;12632718;28;19908;-84
2022/06/11 10:57:14;;;;;;;;;;;;;;;;;;12647682;28;19916;-85
2022/06/11 11:03:15;;;;;;;;;;;;;;;;;;12631120;28;19908;-85
2022/06/11 11:09:17;;;;;;;;;;;;;;;;;;12631002;28;19931;-85
2022/06/11 11:15:19;;;;;;;;;;;;;;;;;;12630412;28;19924;-85
2022/06/11 11:21:20;;;;;;;;;;;;;;;;;;12631108;28;20434;-86
2022/06/11 11:27:22;;;;;;;;;;;;;;;;;;12646960;28;19915;-85
2022/06/11 11:33:23;;;;;;;;;;;;;;;;;;12653403;28;19986;-85
2022/06/11 11:39:25;;;;;;;;;;;;;;;;;;12641230;28;19915;-85
2022/06/11 11:45:26;;;;;;;;;;;;;;;;;;12665851;28;19919;-86
2022/06/11 11:51:27;;;;;;;;;;;;;;;;;;12681078;28;19999;-84
2022/06/11 11:57:29;;;;;;;;;;;;;;;;;;12636195;28;20371;-85
2022/06/11 12:03:30;;;;;;;;;;;;;;;;;;12634188;28;19911;-85
2022/06/11 12:09:32;;;;;;;;;;;;;;;;;;12632351;28;19908;-86
2022/06/11 12:15:33;;;;;;;;;;;;;;;;;;12639698;28;19927;-85
2022/06/11 12:21:35;;;;;;;;;;;;;;;;;;12657233;28;19916;-86
2022/06/11 12:27:39;;;;;;;;;;;;;;;;;;12656086;28;19912;-84
2022/06/11 12:33:42;;;;;;;;;;;;;;;;;;12656639;28;19908;-86
2022/06/11 12:39:43;;;;;;;;;;;;;;;;;;12661908;28;19986;-85
2022/06/11 12:45:44;;;;;;;;;;;;;;;;;;12659429;28;19919;-85
2022/06/11 12:51:46;;;;;;;;;;;;;;;;;;12641790;28;19912;-86
2022/06/11 12:57:48;;;;;;;;;;;;;;;;;;12657848;28;19916;-86
2022/06/11 13:03:50;;;;;;;;;;;;;;;;;;12654708;28;19931;-84
2022/06/11 13:09:51;;;;;;;;;;;;;;;;;;12653876;28;19930;-84
2022/06/11 13:15:53;;;;;;;;;;;;;;;;;;12638727;28;19919;-83
2022/06/11 13:21:54;;;;;;;;;;;;;;;;;;12654426;28;19922;-85
2022/06/11 13:27:56;;;;;;;;;;;;;;;;;;12655638;28;20423;-87
2022/06/11 13:33:58;;;;;;;;;;;;;;;;;;12639763;28;19908;-85
2022/06/11 13:39:59;;;;;;;;;;;;;;;;;;12654333;28;20288;-85
2022/06/11 13:46:01;;;;;;;;;;;;;;;;;;12634982;28;19912;-85
2022/06/11 13:52:03;;;;;;;;;;;;;;;;;;12651123;28;19908;-87
2022/06/11 13:58:04;;;;;;;;;;;;;;;;;;12650567;28;19916;-85
2022/06/11 14:04:06;;;;;;;;;;;;;;;;;;12632980;28;20276;-85
2022/06/11 14:10:24;;;;;;;;;;;;;;;;;;12652133;28;19908;-85
2022/06/11 14:16:25;;;;;;;;;;;;;;;;;;12633213;28;19927;-84
2022/06/11 14:22:26;;;;;;;;;;;;;;;;;;12637920;28;19925;-83
2022/06/11 14:28:28;;;;;;;;;;;;;;;;;;12660787;28;19918;-81
2022/06/11 14:34:31;;;;;;;;;;;;;;;;;;12648087;28;20273;-83
2022/06/11 14:40:32;;;;;;;;;;;;;;;;;;12631027;28;19920;-84
2022/06/11 14:46:38;;;;;;;;;;;;;;;;;;12630673;28;19915;-82
2022/06/11 14:52:40;;;;;;;;;;;;;;;;;;12631252;28;19908;-87
2022/06/11 14:58:42;;;;;;;;;;;;;;;;;;12648868;28;19923;-87
2022/06/11 15:04:43;;;;;;;;;;;;;;;;;;12629997;28;19915;-83
2022/06/11 15:10:45;;;;;;;;;;;;;;;;;;12646586;28;19912;-82
2022/06/11 15:16:46;;;;;;;;;;;;;;;;;;12648172;28;19924;-84
2022/06/11 15:22:48;;;;;;;;;;;;;;;;;;12630851;28;19916;-86
2022/06/11 15:28:49;;;;;;;;;;;;;;;;;;12637057;28;19915;-83
2022/06/11 15:34:51;;;;;;;;;;;;;;;;;;12654438;28;20395;-84
2022/06/11 15:40:52;;;;;;;;;;;;;;;;;;12644981;28;19920;-84
2022/06/11 15:46:54;;;;;;;;;;;;;;;;;;12643027;28;19923;-85
2022/06/11 15:52:59;;;;;;;;;;;;;;;;;;12680981;28;19971;-85
2022/06/11 15:59:00;;;;;;;;;;;;;;;;;;12684954;28;19987;-85
2022/06/11 16:05:02;;;;;;;;;;;;;;;;;;12677755;28;19908;-83
2022/06/11 16:11:03;;;;;;;;;;;;;;;;;;12688740;28;19919;-83
2022/06/11 16:17:05;;;;;;;;;;;;;;;;;;12673549;28;19916;-83
2022/06/11 16:23:07;;;;;;;;;;;;;;;;;;12647706;28;19908;-83
2022/06/11 16:29:08;;;;;;;;;;;;;;;;;;12628934;28;19912;-84
2022/06/11 16:35:09;;;;;;;;;;;;;;;;;;12647449;28;19908;-83
2022/06/11 16:41:11;;;;;;;;;;;;;;;;;;12653816;28;19927;-87
2022/06/11 16:47:13;;;;;;;;;;;;;;;;;;12681604;28;19915;-85
2022/06/11 16:59:35;;;;;;;;;;;;;;;;;;12653016;28;19931;-83
2022/06/11 17:05:36;;;;;;;;;;;;;;;;;;12669907;28;19912;-81
2022/06/11 17:11:38;;;;;;;;;;;;;;;;;;12666955;28;20238;-82
2022/06/11 17:17:39;;;;;;;;;;;;;;;;;;12658967;28;19923;-88
2022/06/11 17:23:41;;;;;;;;;;;;;;;;;;12676734;28;19914;-84
2022/06/11 17:29:43;;;;;;;;;;;;;;;;;;12669234;28;19915;-84
2022/06/11 17:35:45;;;;;;;;;;;;;;;;;;12691895;28;19912;-87
2022/06/11 17:41:46;;;;;;;;;;;;;;;;;;12680052;28;19920;-87
2022/06/11 17:47:48;;;;;;;;;;;;;;;;;;12671114;28;19915;-87
2022/06/11 17:53:49;;;;;;;;;;;;;;;;;;12669812;28;19908;-86
2022/06/11 17:59:51;;;;;;;;;;;;;;;;;;12634360;28;20373;-88
2022/06/11 18:05:52;;;;;;;;;;;;;;;;;;12651716;28;19908;-88
2022/06/11 18:11:54;;;;;;;;;;;;;;;;;;12650261;28;19923;-87
2022/06/11 18:17:55;;;;;;;;;;;;;;;;;;12656919;28;19916;-86
2022/06/11 18:30:17;;;;;;;;;;;;;;;;;;12692555;28;20355;-85
2022/06/11 18:36:19;;;;;;;;;;;;;;;;;;12636303;28;20360;-85
2022/06/11 18:42:21;;;;;;;;;;;;;;;;;;12636533;28;19931;-86
2022/06/11 18:48:26;;;;;;;;;;;;;;;;;;12654433;28;19959;-83
2022/06/11 18:54:27;;;;;;;;;;;;;;;;;;12653578;28;19908;-87
2022/06/11 19:00:29;;;;;;;;;;;;;;;;;;12635323;28;19920;-86
2022/06/11 19:06:30;;;;;;;;;;;;;;;;;;12654356;28;19915;-86
2022/06/11 19:12:32;;;;;;;;;;;;;;;;;;12652414;28;20403;-86
2022/06/11 19:18:33;;;;;;;;;;;;;;;;;;12651996;28;19915;-86
2022/06/11 19:24:35;;;;;;;;;;;;;;;;;;12633925;28;19915;-84
2022/06/11 19:30:37;;;;;;;;;;;;;;;;;;12652088;28;19912;-85
2022/06/11 19:36:38;;;;;;;;;;;;;;;;;;12653569;28;19908;-84
2022/06/11 19:42:40;;;;;;;;;;;;;;;;;;12652382;28;19920;-85
2022/06/11 19:48:42;;;;;;;;;;;;;;;;;;12630122;28;19915;-85
2022/06/11 19:54:44;;;;;;;;;;;;;;;;;;12630890;28;19908;-86
2022/06/11 20:00:45;;;;;;;;;;;;;;;;;;12652007;28;20380;-85
2022/06/11 20:06:47;;;;;;;;;;;;;;;;;;12659805;28;19923;-85
2022/06/11 20:12:48;;;;;;;;;;;;;;;;;;12693177;28;20018;-86
2022/06/11 20:18:51;;;;;;;;;;;;;;;;;;12623250;28;19916;-87
2022/06/11 20:24:53;;;;;;;;;;;;;;;;;;12657875;28;19908;-89
2022/06/11 20:30:54;;;;;;;;;;;;;;;;;;12638526;28;19907;-89
2022/06/11 20:36:56;;;;;;;;;;;;;;;;;;12661745;28;19908;-85
2022/06/11 20:42:58;;;;;;;;;;;;;;;;;;12659224;28;19920;-88
2022/06/11 20:48:59;;;;;;;;;;;;;;;;;;12639744;28;19919;-87
2022/06/11 20:55:01;;;;;;;;;;;;;;;;;;12658160;28;19908;-87
2022/06/11 21:01:02;;;;;;;;;;;;;;;;;;12655497;28;19916;-86
2022/06/11 21:13:24;;;;;;;;;;;;;;;;;;12637462;28;19920;-85
2022/06/11 21:19:25;;;;;;;;;;;;;;;;;;12652204;28;19923;-89
2022/06/11 21:25:27;;;;;;;;;;;;;;;;;;12653284;28;20291;-84
2022/06/11 21:31:28;;;;;;;;;;;;;;;;;;12651806;28;20370;-85
2022/06/11 21:37:30;;;;;;;;;;;;;;;;;;12652290;28;19915;-88
2022/06/11 21:43:31;;;;;;;;;;;;;;;;;;12636601;28;20364;-86
2022/06/11 21:49:33;;;;;;;;;;;;;;;;;;12660999;28;19908;-90
2022/06/11 21:55:34;;;;;;;;;;;;;;;;;;12646653;28;19915;-88
2022/06/11 22:01:36;;;;;;;;;;;;;;;;;;12685573;28;19987;-80
2022/06/11 22:07:40;;;;;;;;;;;;;;;;;;12653774;28;19908;-84
2022/06/11 22:13:41;;;;;;;;;;;;;;;;;;12632739;28;19932;-84
2022/06/11 22:19:43;;;;;;;;;;;;;;;;;;12649460;28;19923;-84
2022/06/11 22:25:44;;;;;;;;;;;;;;;;;;12648139;28;19908;-79
2022/06/11 22:31:46;;;;;;;;;;;;;;;;;;12648738;28;19908;-81
2022/06/11 22:37:48;;;;;;;;;;;;;;;;;;12630125;28;19908;-82
2022/06/11 22:43:50;;;;;;;;;;;;;;;;;;12649680;28;20287;-82
2022/06/11 22:49:52;;;;;;;;;;;;;;;;;;12648166;28;20280;-81
2022/06/11 22:55:53;;;;;;;;;;;;;;;;;;12630923;28;19915;-84
2022/06/11 23:01:55;;;;;;;;;;;;;;;;;;12654033;28;19916;-83
2022/06/11 23:07:57;;;;;;;;;;;;;;;;;;12651672;28;19908;-84
2022/06/11 23:13:58;;;;;;;;;;;;;;;;;;12658505;28;19923;-82
2022/06/11 23:20:01;;;;;;;;;;;;;;;;;;12649675;28;19936;-83
2022/06/11 23:26:04;;;;;;;;;;;;;;;;;;12649306;28;20371;-82
2022/06/11 23:32:06;;;;;;;;;;;;;;;;;;12647656;28;19908;-82
2022/06/11 23:38:07;;;;;;;;;;;;;;;;;;12654700;28;19900;-81
2022/06/11 23:44:09;;;;;;;;;;;;;;;;;;12675689;28;20296;-81
2022/06/11 23:50:10;;;;;;;;;;;;;;;;;;12627636;28;19908;-82
2022/06/11 23:56:12;;;;;;;;;;;;;;;;;;12628191;28;19912;-81
